sensor_id;sensor_type;location;lat;lon;timestamp;temperature;humidity
42663;DHT22;44330;51.360;6.686;2023-02-03T00:00:52;9.30;85.90
42663;DHT22;44330;51.360;6.686;2023-02-03T00:03:17;9.30;86.50
42663;DHT22;44330;51.360;6.686;2023-02-03T00:05:43;9.20;86.20
42663;DHT22;44330;51.360;6.686;2023-02-03T00:08:09;9.20;86.50
42663;DHT22;44330;51.360;6.686;2023-02-03T00:10:36;9.20;86.20
42663;DHT22;44330;51.360;6.686;2023-02-03T00:13:03;9.20;86.90
42663;DHT22;44330;51.360;6.686;2023-02-03T00:15:28;9.20;86.80
42663;DHT22;44330;51.360;6.686;2023-02-03T00:17:54;9.20;86.20
42663;DHT22;44330;51.360;6.686;2023-02-03T00:20:20;9.20;86.50
42663;DHT22;44330;51.360;6.686;2023-02-03T00:22:45;9.20;86.10
42663;DHT22;44330;51.360;6.686;2023-02-03T00:25:11;9.20;86.20
42663;DHT22;44330;51.360;6.686;2023-02-03T00:27:37;9.20;86.90
42663;DHT22;44330;51.360;6.686;2023-02-03T00:30:03;9.20;86.70
42663;DHT22;44330;51.360;6.686;2023-02-03T00:32:28;9.20;86.00
42663;DHT22;44330;51.360;6.686;2023-02-03T00:34:54;9.20;85.90
42663;DHT22;44330;51.360;6.686;2023-02-03T00:37:20;9.30;84.80
42663;DHT22;44330;51.360;6.686;2023-02-03T00:39:47;9.30;85.30
42663;DHT22;44330;51.360;6.686;2023-02-03T00:42:13;9.20;85.90
42663;DHT22;44330;51.360;6.686;2023-02-03T00:44:39;9.20;86.30
42663;DHT22;44330;51.360;6.686;2023-02-03T00:47:04;9.30;85.90
42663;DHT22;44330;51.360;6.686;2023-02-03T00:49:30;9.20;85.70
42663;DHT22;44330;51.360;6.686;2023-02-03T00:51:56;9.20;85.90
42663;DHT22;44330;51.360;6.686;2023-02-03T00:54:21;9.20;85.80
42663;DHT22;44330;51.360;6.686;2023-02-03T00:56:47;9.20;85.80
42663;DHT22;44330;51.360;6.686;2023-02-03T00:59:12;9.30;85.20
42663;DHT22;44330;51.360;6.686;2023-02-03T01:01:38;9.30;85.00
42663;DHT22;44330;51.360;6.686;2023-02-03T01:04:04;9.20;85.90
42663;DHT22;44330;51.360;6.686;2023-02-03T01:06:29;9.20;85.50
42663;DHT22;44330;51.360;6.686;2023-02-03T01:08:55;9.20;86.00
42663;DHT22;44330;51.360;6.686;2023-02-03T01:11:23;9.20;85.80
42663;DHT22;44330;51.360;6.686;2023-02-03T01:13:50;9.20;85.60
42663;DHT22;44330;51.360;6.686;2023-02-03T01:16:18;9.20;86.20
42663;DHT22;44330;51.360;6.686;2023-02-03T01:18:44;9.20;85.50
42663;DHT22;44330;51.360;6.686;2023-02-03T01:21:15;9.20;85.30
42663;DHT22;44330;51.360;6.686;2023-02-03T01:23:42;9.30;85.70
42663;DHT22;44330;51.360;6.686;2023-02-03T01:26:13;9.20;85.90
42663;DHT22;44330;51.360;6.686;2023-02-03T01:28:39;9.30;85.40
42663;DHT22;44330;51.360;6.686;2023-02-03T01:31:25;9.30;85.30
42663;DHT22;44330;51.360;6.686;2023-02-03T01:33:52;9.30;84.40
42663;DHT22;44330;51.360;6.686;2023-02-03T01:36:19;9.30;84.60
42663;DHT22;44330;51.360;6.686;2023-02-03T01:38:45;9.30;84.20
42663;DHT22;44330;51.360;6.686;2023-02-03T01:41:13;9.20;85.20
42663;DHT22;44330;51.360;6.686;2023-02-03T01:43:42;9.20;84.90
42663;DHT22;44330;51.360;6.686;2023-02-03T01:49:17;9.20;85.80
42663;DHT22;44330;51.360;6.686;2023-02-03T01:51:44;9.20;86.40
42663;DHT22;44330;51.360;6.686;2023-02-03T01:54:13;9.20;85.70
42663;DHT22;44330;51.360;6.686;2023-02-03T01:56:44;9.30;84.50
42663;DHT22;44330;51.360;6.686;2023-02-03T01:59:12;9.30;83.30
42663;DHT22;44330;51.360;6.686;2023-02-03T02:01:40;9.20;83.30
42663;DHT22;44330;51.360;6.686;2023-02-03T02:04:06;9.30;83.80
42663;DHT22;44330;51.360;6.686;2023-02-03T02:06:32;9.30;83.70
42663;DHT22;44330;51.360;6.686;2023-02-03T02:08:58;9.30;83.80
42663;DHT22;44330;51.360;6.686;2023-02-03T02:11:26;9.30;83.70
42663;DHT22;44330;51.360;6.686;2023-02-03T02:13:53;9.30;83.10
42663;DHT22;44330;51.360;6.686;2023-02-03T02:21:46;9.30;83.20
42663;DHT22;44330;51.360;6.686;2023-02-03T02:27:59;9.30;83.50
42663;DHT22;44330;51.360;6.686;2023-02-03T02:36:16;9.30;82.50
42663;DHT22;44330;51.360;6.686;2023-02-03T02:38:48;9.40;82.60
42663;DHT22;44330;51.360;6.686;2023-02-03T02:44:21;9.30;82.40
42663;DHT22;44330;51.360;6.686;2023-02-03T02:46:51;9.40;81.00
42663;DHT22;44330;51.360;6.686;2023-02-03T02:49:32;9.40;80.20
42663;DHT22;44330;51.360;6.686;2023-02-03T02:52:01;9.40;79.20
42663;DHT22;44330;51.360;6.686;2023-02-03T02:54:30;9.40;78.80
42663;DHT22;44330;51.360;6.686;2023-02-03T02:56:59;9.40;79.00
42663;DHT22;44330;51.360;6.686;2023-02-03T02:59:26;9.40;79.70
42663;DHT22;44330;51.360;6.686;2023-02-03T03:01:51;9.30;79.30
42663;DHT22;44330;51.360;6.686;2023-02-03T03:04:24;9.30;80.00
42663;DHT22;44330;51.360;6.686;2023-02-03T03:07:07;9.30;79.70
42663;DHT22;44330;51.360;6.686;2023-02-03T03:09:55;9.40;78.40
42663;DHT22;44330;51.360;6.686;2023-02-03T03:12:31;9.40;78.50
42663;DHT22;44330;51.360;6.686;2023-02-03T03:15:04;9.40;78.20
42663;DHT22;44330;51.360;6.686;2023-02-03T03:17:38;9.40;78.50
42663;DHT22;44330;51.360;6.686;2023-02-03T03:20:08;9.40;77.80
42663;DHT22;44330;51.360;6.686;2023-02-03T03:22:38;9.40;77.80
42663;DHT22;44330;51.360;6.686;2023-02-03T03:25:13;9.40;78.90
42663;DHT22;44330;51.360;6.686;2023-02-03T03:27:42;9.40;77.70
42663;DHT22;44330;51.360;6.686;2023-02-03T03:30:20;9.30;78.10
42663;DHT22;44330;51.360;6.686;2023-02-03T03:32:47;9.40;78.20
42663;DHT22;44330;51.360;6.686;2023-02-03T03:35:13;9.40;78.00
42663;DHT22;44330;51.360;6.686;2023-02-03T03:37:46;9.40;78.20
42663;DHT22;44330;51.360;6.686;2023-02-03T03:40:27;9.40;77.50
42663;DHT22;44330;51.360;6.686;2023-02-03T03:42:57;9.40;77.20
42663;DHT22;44330;51.360;6.686;2023-02-03T03:45:37;9.40;77.80
42663;DHT22;44330;51.360;6.686;2023-02-03T03:48:18;9.40;77.80
42663;DHT22;44330;51.360;6.686;2023-02-03T03:50:50;9.40;77.10
42663;DHT22;44330;51.360;6.686;2023-02-03T03:53:18;9.40;77.70
42663;DHT22;44330;51.360;6.686;2023-02-03T03:55:48;9.40;78.20
42663;DHT22;44330;51.360;6.686;2023-02-03T03:58:24;9.40;76.70
42663;DHT22;44330;51.360;6.686;2023-02-03T04:00:53;9.40;77.20
42663;DHT22;44330;51.360;6.686;2023-02-03T04:03:23;9.40;75.30
42663;DHT22;44330;51.360;6.686;2023-02-03T04:05:49;9.50;74.70
42663;DHT22;44330;51.360;6.686;2023-02-03T04:08:15;9.40;74.00
42663;DHT22;44330;51.360;6.686;2023-02-03T04:10:41;9.50;74.50
42663;DHT22;44330;51.360;6.686;2023-02-03T04:13:08;9.50;74.00
42663;DHT22;44330;51.360;6.686;2023-02-03T04:15:34;9.40;74.00
42663;DHT22;44330;51.360;6.686;2023-02-03T04:18:00;9.50;73.70
42663;DHT22;44330;51.360;6.686;2023-02-03T04:20:27;9.40;74.30
42663;DHT22;44330;51.360;6.686;2023-02-03T04:22:53;9.40;73.40
42663;DHT22;44330;51.360;6.686;2023-02-03T04:25:19;9.50;74.40
42663;DHT22;44330;51.360;6.686;2023-02-03T04:27:44;9.50;72.70
42663;DHT22;44330;51.360;6.686;2023-02-03T04:30:10;9.50;73.60
42663;DHT22;44330;51.360;6.686;2023-02-03T04:32:36;9.50;73.70
42663;DHT22;44330;51.360;6.686;2023-02-03T04:35:03;9.40;73.30
42663;DHT22;44330;51.360;6.686;2023-02-03T04:37:29;9.40;74.10
42663;DHT22;44330;51.360;6.686;2023-02-03T04:39:56;9.50;73.90
42663;DHT22;44330;51.360;6.686;2023-02-03T04:42:22;9.40;74.20
42663;DHT22;44330;51.360;6.686;2023-02-03T04:44:47;9.40;75.10
42663;DHT22;44330;51.360;6.686;2023-02-03T04:47:14;9.40;74.00
42663;DHT22;44330;51.360;6.686;2023-02-03T04:49:39;9.50;73.30
42663;DHT22;44330;51.360;6.686;2023-02-03T04:52:05;9.40;74.20
42663;DHT22;44330;51.360;6.686;2023-02-03T04:54:31;9.40;74.90
42663;DHT22;44330;51.360;6.686;2023-02-03T04:56:56;9.40;74.40
42663;DHT22;44330;51.360;6.686;2023-02-03T04:59:22;9.40;74.30
42663;DHT22;44330;51.360;6.686;2023-02-03T05:01:47;9.50;73.20
42663;DHT22;44330;51.360;6.686;2023-02-03T05:04:13;9.50;73.00
42663;DHT22;44330;51.360;6.686;2023-02-03T05:06:38;9.50;73.20
42663;DHT22;44330;51.360;6.686;2023-02-03T05:09:04;9.50;74.20
42663;DHT22;44330;51.360;6.686;2023-02-03T05:11:30;9.40;74.50
42663;DHT22;44330;51.360;6.686;2023-02-03T05:13:55;9.40;75.30
42663;DHT22;44330;51.360;6.686;2023-02-03T05:16:22;9.40;75.80
42663;DHT22;44330;51.360;6.686;2023-02-03T05:18:47;9.40;75.00
42663;DHT22;44330;51.360;6.686;2023-02-03T05:21:13;9.40;75.60
42663;DHT22;44330;51.360;6.686;2023-02-03T05:23:38;9.40;75.40
42663;DHT22;44330;51.360;6.686;2023-02-03T05:26:04;9.40;74.60
42663;DHT22;44330;51.360;6.686;2023-02-03T05:28:29;9.40;75.70
42663;DHT22;44330;51.360;6.686;2023-02-03T05:30:59;9.50;73.30
42663;DHT22;44330;51.360;6.686;2023-02-03T05:33:25;9.40;74.10
42663;DHT22;44330;51.360;6.686;2023-02-03T05:35:50;9.40;73.30
42663;DHT22;44330;51.360;6.686;2023-02-03T05:38:16;9.50;73.60
42663;DHT22;44330;51.360;6.686;2023-02-03T05:40:41;9.50;74.20
42663;DHT22;44330;51.360;6.686;2023-02-03T05:43:26;9.40;74.40
42663;DHT22;44330;51.360;6.686;2023-02-03T05:45:52;9.30;75.20
42663;DHT22;44330;51.360;6.686;2023-02-03T05:48:18;9.40;74.40
42663;DHT22;44330;51.360;6.686;2023-02-03T05:50:44;9.40;73.90
42663;DHT22;44330;51.360;6.686;2023-02-03T05:53:09;9.50;72.90
42663;DHT22;44330;51.360;6.686;2023-02-03T05:55:36;9.40;73.70
42663;DHT22;44330;51.360;6.686;2023-02-03T05:58:02;9.40;73.20
42663;DHT22;44330;51.360;6.686;2023-02-03T06:00:28;9.50;72.80
42663;DHT22;44330;51.360;6.686;2023-02-03T06:02:57;9.50;73.30
42663;DHT22;44330;51.360;6.686;2023-02-03T06:05:23;9.50;73.60
42663;DHT22;44330;51.360;6.686;2023-02-03T06:07:50;9.50;72.60
42663;DHT22;44330;51.360;6.686;2023-02-03T06:10:16;9.50;72.60
42663;DHT22;44330;51.360;6.686;2023-02-03T06:12:42;9.50;72.50
42663;DHT22;44330;51.360;6.686;2023-02-03T06:15:08;9.40;72.50
42663;DHT22;44330;51.360;6.686;2023-02-03T06:17:34;9.50;71.80
42663;DHT22;44330;51.360;6.686;2023-02-03T06:20:02;9.50;72.00
42663;DHT22;44330;51.360;6.686;2023-02-03T06:22:28;9.50;71.60
42663;DHT22;44330;51.360;6.686;2023-02-03T06:24:53;9.50;69.70
42663;DHT22;44330;51.360;6.686;2023-02-03T06:27:19;9.50;70.70
42663;DHT22;44330;51.360;6.686;2023-02-03T06:29:44;9.50;70.50
42663;DHT22;44330;51.360;6.686;2023-02-03T06:32:10;9.60;69.40
42663;DHT22;44330;51.360;6.686;2023-02-03T06:34:36;9.60;69.30
42663;DHT22;44330;51.360;6.686;2023-02-03T06:37:01;9.60;69.60
42663;DHT22;44330;51.360;6.686;2023-02-03T06:39:27;9.60;69.00
42663;DHT22;44330;51.360;6.686;2023-02-03T06:41:52;9.60;68.60
42663;DHT22;44330;51.360;6.686;2023-02-03T06:44:20;9.60;68.40
42663;DHT22;44330;51.360;6.686;2023-02-03T06:46:46;9.60;69.60
42663;DHT22;44330;51.360;6.686;2023-02-03T06:49:11;9.60;69.70
42663;DHT22;44330;51.360;6.686;2023-02-03T06:51:37;9.60;69.00
42663;DHT22;44330;51.360;6.686;2023-02-03T06:54:03;9.60;69.00
42663;DHT22;44330;51.360;6.686;2023-02-03T06:56:29;9.60;69.00
42663;DHT22;44330;51.360;6.686;2023-02-03T06:58:55;9.70;68.90
42663;DHT22;44330;51.360;6.686;2023-02-03T07:01:22;9.60;69.40
42663;DHT22;44330;51.360;6.686;2023-02-03T07:03:48;9.60;69.00
42663;DHT22;44330;51.360;6.686;2023-02-03T07:06:13;9.60;68.30
42663;DHT22;44330;51.360;6.686;2023-02-03T07:08:39;9.60;68.80
42663;DHT22;44330;51.360;6.686;2023-02-03T07:11:06;9.60;70.50
42663;DHT22;44330;51.360;6.686;2023-02-03T07:13:31;9.60;69.80
42663;DHT22;44330;51.360;6.686;2023-02-03T07:15:57;9.60;69.60
42663;DHT22;44330;51.360;6.686;2023-02-03T07:18:23;9.60;70.00
42663;DHT22;44330;51.360;6.686;2023-02-03T07:20:50;9.60;69.90
42663;DHT22;44330;51.360;6.686;2023-02-03T07:23:16;9.60;70.80
42663;DHT22;44330;51.360;6.686;2023-02-03T07:25:41;9.50;71.70
42663;DHT22;44330;51.360;6.686;2023-02-03T07:28:07;9.60;69.80
42663;DHT22;44330;51.360;6.686;2023-02-03T07:30:33;9.60;69.80
42663;DHT22;44330;51.360;6.686;2023-02-03T07:32:58;9.60;69.70
42663;DHT22;44330;51.360;6.686;2023-02-03T07:35:24;9.60;70.90
42663;DHT22;44330;51.360;6.686;2023-02-03T07:37:50;9.60;70.50
42663;DHT22;44330;51.360;6.686;2023-02-03T07:40:16;9.60;71.20
42663;DHT22;44330;51.360;6.686;2023-02-03T07:42:46;9.60;70.30
42663;DHT22;44330;51.360;6.686;2023-02-03T07:45:14;9.60;69.50
42663;DHT22;44330;51.360;6.686;2023-02-03T07:47:41;9.60;70.10
42663;DHT22;44330;51.360;6.686;2023-02-03T07:50:08;9.60;69.80
42663;DHT22;44330;51.360;6.686;2023-02-03T07:52:35;9.60;69.70
42663;DHT22;44330;51.360;6.686;2023-02-03T07:55:01;9.60;69.30
42663;DHT22;44330;51.360;6.686;2023-02-03T07:57:26;9.70;69.40
42663;DHT22;44330;51.360;6.686;2023-02-03T07:59:52;9.60;69.30
42663;DHT22;44330;51.360;6.686;2023-02-03T08:02:23;9.60;70.70
42663;DHT22;44330;51.360;6.686;2023-02-03T08:04:49;9.60;70.30
42663;DHT22;44330;51.360;6.686;2023-02-03T08:07:14;9.70;69.60
42663;DHT22;44330;51.360;6.686;2023-02-03T08:09:40;9.70;70.30
42663;DHT22;44330;51.360;6.686;2023-02-03T08:12:06;9.70;70.10
42663;DHT22;44330;51.360;6.686;2023-02-03T08:14:31;9.70;69.80
42663;DHT22;44330;51.360;6.686;2023-02-03T08:16:57;9.70;69.20
42663;DHT22;44330;51.360;6.686;2023-02-03T08:19:22;9.70;68.50
42663;DHT22;44330;51.360;6.686;2023-02-03T08:21:48;9.60;70.50
42663;DHT22;44330;51.360;6.686;2023-02-03T08:24:13;9.70;70.30
42663;DHT22;44330;51.360;6.686;2023-02-03T08:26:39;9.70;70.70
42663;DHT22;44330;51.360;6.686;2023-02-03T08:29:05;9.70;70.50
42663;DHT22;44330;51.360;6.686;2023-02-03T08:31:32;9.70;70.60
42663;DHT22;44330;51.360;6.686;2023-02-03T08:33:57;9.70;72.10
42663;DHT22;44330;51.360;6.686;2023-02-03T08:36:23;9.70;70.60
42663;DHT22;44330;51.360;6.686;2023-02-03T08:38:49;9.70;71.80
42663;DHT22;44330;51.360;6.686;2023-02-03T08:41:15;9.80;72.40
42663;DHT22;44330;51.360;6.686;2023-02-03T08:43:43;9.70;73.40
42663;DHT22;44330;51.360;6.686;2023-02-03T08:46:10;9.70;74.40
42663;DHT22;44330;51.360;6.686;2023-02-03T08:48:37;9.70;74.40
42663;DHT22;44330;51.360;6.686;2023-02-03T08:51:09;9.70;73.60
42663;DHT22;44330;51.360;6.686;2023-02-03T08:53:35;9.60;74.50
42663;DHT22;44330;51.360;6.686;2023-02-03T08:56:08;9.70;75.20
42663;DHT22;44330;51.360;6.686;2023-02-03T08:58:34;9.70;74.10
42663;DHT22;44330;51.360;6.686;2023-02-03T09:01:11;9.60;74.80
42663;DHT22;44330;51.360;6.686;2023-02-03T09:03:38;9.60;76.10
42663;DHT22;44330;51.360;6.686;2023-02-03T09:06:04;9.60;77.30
42663;DHT22;44330;51.360;6.686;2023-02-03T09:08:30;9.60;77.30
42663;DHT22;44330;51.360;6.686;2023-02-03T09:10:55;9.60;77.50
42663;DHT22;44330;51.360;6.686;2023-02-03T09:13:21;9.60;78.00
42663;DHT22;44330;51.360;6.686;2023-02-03T09:15:47;9.60;79.20
42663;DHT22;44330;51.360;6.686;2023-02-03T09:18:12;9.50;80.70
42663;DHT22;44330;51.360;6.686;2023-02-03T09:20:38;9.60;81.10
42663;DHT22;44330;51.360;6.686;2023-02-03T09:23:03;9.50;81.40
42663;DHT22;44330;51.360;6.686;2023-02-03T09:25:29;9.50;81.90
42663;DHT22;44330;51.360;6.686;2023-02-03T09:27:54;9.50;82.20
42663;DHT22;44330;51.360;6.686;2023-02-03T09:30:20;9.50;82.80
42663;DHT22;44330;51.360;6.686;2023-02-03T09:32:45;9.50;82.40
42663;DHT22;44330;51.360;6.686;2023-02-03T09:35:18;9.50;83.40
42663;DHT22;44330;51.360;6.686;2023-02-03T09:37:44;9.50;82.80
42663;DHT22;44330;51.360;6.686;2023-02-03T09:40:19;9.50;82.70
42663;DHT22;44330;51.360;6.686;2023-02-03T09:43:07;9.40;84.00
42663;DHT22;44330;51.360;6.686;2023-02-03T09:45:37;9.50;83.30
42663;DHT22;44330;51.360;6.686;2023-02-03T09:48:10;9.50;84.10
42663;DHT22;44330;51.360;6.686;2023-02-03T09:50:39;9.50;83.70
42663;DHT22;44330;51.360;6.686;2023-02-03T09:53:27;9.50;84.00
42663;DHT22;44330;51.360;6.686;2023-02-03T09:55:57;9.40;84.00
42663;DHT22;44330;51.360;6.686;2023-02-03T09:58:22;9.40;84.60
42663;DHT22;44330;51.360;6.686;2023-02-03T10:00:57;9.40;85.30
42663;DHT22;44330;51.360;6.686;2023-02-03T10:03:43;9.50;84.70
42663;DHT22;44330;51.360;6.686;2023-02-03T10:06:24;9.50;85.00
42663;DHT22;44330;51.360;6.686;2023-02-03T10:09:18;9.50;85.40
42663;DHT22;44330;51.360;6.686;2023-02-03T10:17:49;9.50;86.30
42663;DHT22;44330;51.360;6.686;2023-02-03T10:20:24;9.50;85.80
42663;DHT22;44330;51.360;6.686;2023-02-03T10:22:58;9.50;85.70
42663;DHT22;44330;51.360;6.686;2023-02-03T10:25:34;9.50;86.10
42663;DHT22;44330;51.360;6.686;2023-02-03T10:28:07;9.50;86.40
42663;DHT22;44330;51.360;6.686;2023-02-03T10:30:45;9.50;86.50
42663;DHT22;44330;51.360;6.686;2023-02-03T10:33:15;9.50;85.90
42663;DHT22;44330;51.360;6.686;2023-02-03T10:35:51;9.60;84.30
42663;DHT22;44330;51.360;6.686;2023-02-03T10:41:15;9.60;83.90
42663;DHT22;44330;51.360;6.686;2023-02-03T10:43:41;9.70;83.60
42663;DHT22;44330;51.360;6.686;2023-02-03T10:46:20;9.70;84.10
42663;DHT22;44330;51.360;6.686;2023-02-03T10:48:50;9.80;83.30
42663;DHT22;44330;51.360;6.686;2023-02-03T10:51:21;9.80;83.60
42663;DHT22;44330;51.360;6.686;2023-02-03T10:53:48;9.80;82.90
42663;DHT22;44330;51.360;6.686;2023-02-03T10:56:17;9.90;82.10
42663;DHT22;44330;51.360;6.686;2023-02-03T10:58:49;9.90;81.10
42663;DHT22;44330;51.360;6.686;2023-02-03T11:01:18;9.90;81.70
42663;DHT22;44330;51.360;6.686;2023-02-03T11:03:57;9.90;80.50
42663;DHT22;44330;51.360;6.686;2023-02-03T11:06:24;9.90;81.20
42663;DHT22;44330;51.360;6.686;2023-02-03T11:08:50;10.00;80.50
42663;DHT22;44330;51.360;6.686;2023-02-03T11:13:45;10.00;79.90
42663;DHT22;44330;51.360;6.686;2023-02-03T11:16:15;10.10;79.00
42663;DHT22;44330;51.360;6.686;2023-02-03T11:21:39;10.20;77.10
42663;DHT22;44330;51.360;6.686;2023-02-03T11:26:44;10.20;78.10
42663;DHT22;44330;51.360;6.686;2023-02-03T11:29:38;10.30;76.70
42663;DHT22;44330;51.360;6.686;2023-02-03T11:35:02;10.40;74.10
42663;DHT22;44330;51.360;6.686;2023-02-03T11:37:32;10.40;74.60
42663;DHT22;44330;51.360;6.686;2023-02-03T11:42:38;10.40;75.30
42663;DHT22;44330;51.360;6.686;2023-02-03T11:45:28;10.40;73.70
42663;DHT22;44330;51.360;6.686;2023-02-03T11:56:48;10.40;74.60
42663;DHT22;44330;51.360;6.686;2023-02-03T12:02:12;10.40;75.70
42663;DHT22;44330;51.360;6.686;2023-02-03T12:05:13;10.50;74.50
42663;DHT22;44330;51.360;6.686;2023-02-03T12:14:06;10.60;73.40
42663;DHT22;44330;51.360;6.686;2023-02-03T12:22:42;10.60;73.40
42663;DHT22;44330;51.360;6.686;2023-02-03T12:27:52;10.50;74.00
42663;DHT22;44330;51.360;6.686;2023-02-03T12:30:34;10.50;75.40
42663;DHT22;44330;51.360;6.686;2023-02-03T12:33:14;10.60;74.60
42663;DHT22;44330;51.360;6.686;2023-02-03T12:38:35;10.60;74.40
42663;DHT22;44330;51.360;6.686;2023-02-03T12:41:10;10.70;74.10
42663;DHT22;44330;51.360;6.686;2023-02-03T12:43:45;10.70;74.70
42663;DHT22;44330;51.360;6.686;2023-02-03T12:46:39;10.60;75.20
42663;DHT22;44330;51.360;6.686;2023-02-03T12:51:55;10.70;73.10
42663;DHT22;44330;51.360;6.686;2023-02-03T12:54:53;10.70;73.40
42663;DHT22;44330;51.360;6.686;2023-02-03T12:57:28;10.70;74.30
42663;DHT22;44330;51.360;6.686;2023-02-03T13:00:03;10.70;74.60
42663;DHT22;44330;51.360;6.686;2023-02-03T13:02:41;10.80;75.30
42663;DHT22;44330;51.360;6.686;2023-02-03T13:05:32;10.80;73.60
42663;DHT22;44330;51.360;6.686;2023-02-03T13:08:36;10.80;74.00
42663;DHT22;44330;51.360;6.686;2023-02-03T13:14:18;10.80;73.30
42663;DHT22;44330;51.360;6.686;2023-02-03T13:16:50;10.90;72.90
42663;DHT22;44330;51.360;6.686;2023-02-03T13:19:20;10.90;72.30
42663;DHT22;44330;51.360;6.686;2023-02-03T13:21:48;10.90;73.50
42663;DHT22;44330;51.360;6.686;2023-02-03T13:24:14;11.00;72.70
42663;DHT22;44330;51.360;6.686;2023-02-03T13:27:13;11.00;72.90
42663;DHT22;44330;51.360;6.686;2023-02-03T13:32:36;11.00;70.10
42663;DHT22;44330;51.360;6.686;2023-02-03T13:38:08;11.10;70.50
42663;DHT22;44330;51.360;6.686;2023-02-03T13:43:28;11.10;70.30
42663;DHT22;44330;51.360;6.686;2023-02-03T13:45:56;11.10;69.40
42663;DHT22;44330;51.360;6.686;2023-02-03T13:48:30;11.20;69.80
42663;DHT22;44330;51.360;6.686;2023-02-03T13:53:36;11.10;72.00
42663;DHT22;44330;51.360;6.686;2023-02-03T13:56:06;11.00;73.20
42663;DHT22;44330;51.360;6.686;2023-02-03T13:58:35;11.00;73.70
42663;DHT22;44330;51.360;6.686;2023-02-03T14:01:29;11.00;73.80
42663;DHT22;44330;51.360;6.686;2023-02-03T14:03:56;11.00;73.70
42663;DHT22;44330;51.360;6.686;2023-02-03T14:11:45;10.90;76.20
42663;DHT22;44330;51.360;6.686;2023-02-03T14:16:38;10.90;78.50
42663;DHT22;44330;51.360;6.686;2023-02-03T14:19:52;10.80;77.90
42663;DHT22;44330;51.360;6.686;2023-02-03T14:22:06;10.80;78.70
42663;DHT22;44330;51.360;6.686;2023-02-03T14:24:38;10.70;79.30
42663;DHT22;44330;51.360;6.686;2023-02-03T14:27:15;10.70;81.10
42663;DHT22;44330;51.360;6.686;2023-02-03T14:29:41;10.70;81.70
42663;DHT22;44330;51.360;6.686;2023-02-03T14:32:12;10.60;82.30
42663;DHT22;44330;51.360;6.686;2023-02-03T14:34:43;10.50;86.80
42663;DHT22;44330;51.360;6.686;2023-02-03T14:37:29;10.40;89.20
42663;DHT22;44330;51.360;6.686;2023-02-03T14:48:11;10.30;90.30
42663;DHT22;44330;51.360;6.686;2023-02-03T14:56:36;10.30;90.30
42663;DHT22;44330;51.360;6.686;2023-02-03T14:59:27;10.20;91.10
42663;DHT22;44330;51.360;6.686;2023-02-03T15:02:10;10.10;91.50
42663;DHT22;44330;51.360;6.686;2023-02-03T15:04:36;9.90;90.70
42663;DHT22;44330;51.360;6.686;2023-02-03T15:07:02;9.90;90.20
42663;DHT22;44330;51.360;6.686;2023-02-03T15:09:41;9.90;90.80
42663;DHT22;44330;51.360;6.686;2023-02-03T15:12:19;9.80;87.40
42663;DHT22;44330;51.360;6.686;2023-02-03T15:14:47;9.70;87.80
42663;DHT22;44330;51.360;6.686;2023-02-03T15:17:21;9.60;86.40
42663;DHT22;44330;51.360;6.686;2023-02-03T15:19:50;9.60;87.50
42663;DHT22;44330;51.360;6.686;2023-02-03T15:22:21;9.50;87.40
42663;DHT22;44330;51.360;6.686;2023-02-03T15:24:49;9.60;87.50
42663;DHT22;44330;51.360;6.686;2023-02-03T15:27:24;9.60;88.00
42663;DHT22;44330;51.360;6.686;2023-02-03T15:29:49;9.60;85.40
42663;DHT22;44330;51.360;6.686;2023-02-03T15:32:23;9.60;85.50
42663;DHT22;44330;51.360;6.686;2023-02-03T15:34:51;9.60;83.80
42663;DHT22;44330;51.360;6.686;2023-02-03T15:37:38;9.60;82.40
42663;DHT22;44330;51.360;6.686;2023-02-03T15:40:12;9.60;82.70
42663;DHT22;44330;51.360;6.686;2023-02-03T15:42:46;9.60;80.60
42663;DHT22;44330;51.360;6.686;2023-02-03T15:45:36;9.60;81.00
42663;DHT22;44330;51.360;6.686;2023-02-03T15:48:24;9.50;82.40
42663;DHT22;44330;51.360;6.686;2023-02-03T15:51:10;9.50;81.80
42663;DHT22;44330;51.360;6.686;2023-02-03T15:53:51;9.50;82.50
42663;DHT22;44330;51.360;6.686;2023-02-03T15:56:29;9.50;80.30
42663;DHT22;44330;51.360;6.686;2023-02-03T15:58:59;9.40;80.90
42663;DHT22;44330;51.360;6.686;2023-02-03T16:01:25;9.40;79.60
42663;DHT22;44330;51.360;6.686;2023-02-03T16:03:54;9.40;80.30
42663;DHT22;44330;51.360;6.686;2023-02-03T16:06:38;9.40;80.50
42663;DHT22;44330;51.360;6.686;2023-02-03T16:12:00;9.40;80.40
42663;DHT22;44330;51.360;6.686;2023-02-03T16:14:34;9.40;80.10
42663;DHT22;44330;51.360;6.686;2023-02-03T16:17:00;9.40;79.10
42663;DHT22;44330;51.360;6.686;2023-02-03T16:19:28;9.30;79.40
42663;DHT22;44330;51.360;6.686;2023-02-03T16:21:55;9.30;79.20
42663;DHT22;44330;51.360;6.686;2023-02-03T16:30:00;9.40;80.70
42663;DHT22;44330;51.360;6.686;2023-02-03T16:33:12;9.40;79.80
42663;DHT22;44330;51.360;6.686;2023-02-03T16:36:00;9.40;81.20
42663;DHT22;44330;51.360;6.686;2023-02-03T16:38:45;9.40;81.40
42663;DHT22;44330;51.360;6.686;2023-02-03T16:41:31;9.30;82.10
42663;DHT22;44330;51.360;6.686;2023-02-03T16:44:15;9.30;82.90
42663;DHT22;44330;51.360;6.686;2023-02-03T16:46:59;9.30;83.40
42663;DHT22;44330;51.360;6.686;2023-02-03T16:49:44;9.20;84.20
42663;DHT22;44330;51.360;6.686;2023-02-03T16:52:28;9.20;83.80
42663;DHT22;44330;51.360;6.686;2023-02-03T16:54:54;9.20;83.90
42663;DHT22;44330;51.360;6.686;2023-02-03T16:57:23;9.20;83.50
42663;DHT22;44330;51.360;6.686;2023-02-03T16:59:49;9.20;83.60
42663;DHT22;44330;51.360;6.686;2023-02-03T17:02:15;9.20;82.50
42663;DHT22;44330;51.360;6.686;2023-02-03T17:04:41;9.20;82.50
42663;DHT22;44330;51.360;6.686;2023-02-03T17:07:06;9.20;82.70
42663;DHT22;44330;51.360;6.686;2023-02-03T17:09:32;9.20;83.40
42663;DHT22;44330;51.360;6.686;2023-02-03T17:12:01;9.10;83.30
42663;DHT22;44330;51.360;6.686;2023-02-03T17:14:27;9.10;83.70
42663;DHT22;44330;51.360;6.686;2023-02-03T17:16:53;9.10;83.50
42663;DHT22;44330;51.360;6.686;2023-02-03T17:19:18;9.10;83.00
42663;DHT22;44330;51.360;6.686;2023-02-03T17:21:44;9.10;82.60
42663;DHT22;44330;51.360;6.686;2023-02-03T17:24:10;9.10;82.90
42663;DHT22;44330;51.360;6.686;2023-02-03T17:26:36;9.10;81.50
42663;DHT22;44330;51.360;6.686;2023-02-03T17:29:02;9.20;80.30
42663;DHT22;44330;51.360;6.686;2023-02-03T17:31:28;9.20;79.80
42663;DHT22;44330;51.360;6.686;2023-02-03T17:33:54;9.20;78.20
42663;DHT22;44330;51.360;6.686;2023-02-03T17:36:21;9.10;77.30
42663;DHT22;44330;51.360;6.686;2023-02-03T17:38:52;9.10;77.50
42663;DHT22;44330;51.360;6.686;2023-02-03T17:41:22;9.10;77.00
42663;DHT22;44330;51.360;6.686;2023-02-03T17:43:48;9.00;76.90
42663;DHT22;44330;51.360;6.686;2023-02-03T17:46:20;9.00;77.10
42663;DHT22;44330;51.360;6.686;2023-02-03T17:48:46;8.90;77.90
42663;DHT22;44330;51.360;6.686;2023-02-03T17:51:14;8.90;78.10
42663;DHT22;44330;51.360;6.686;2023-02-03T17:53:42;8.90;78.70
42663;DHT22;44330;51.360;6.686;2023-02-03T17:56:14;8.90;79.70
42663;DHT22;44330;51.360;6.686;2023-02-03T17:58:40;8.80;79.90
42663;DHT22;44330;51.360;6.686;2023-02-03T18:01:12;8.80;79.90
42663;DHT22;44330;51.360;6.686;2023-02-03T18:03:48;8.80;80.40